sensor_id;sensor_type;location;lat;lon;timestamp;P1;durP1;ratioP1;P2;durP2;ratioP2
68025;SDS011;54819;48.030;14.710;2023-04-24T00:01:05;5.50;;;3.50;;
68025;SDS011;54819;48.030;14.710;2023-04-24T00:03:34;5.80;;;2.70;;
68025;SDS011;54819;48.030;14.710;2023-04-24T00:06:02;6.70;;;3.80;;
68025;SDS011;54819;48.030;14.710;2023-04-24T00:08:29;7.80;;;4.30;;
68025;SDS011;54819;48.030;14.710;2023-04-24T00:10:56;10.50;;;5.30;;
68025;SDS011;54819;48.030;14.710;2023-04-24T00:13:23;11.50;;;5.80;;
68025;SDS011;54819;48.030;14.710;2023-04-24T00:15:50;7.00;;;3.60;;
68025;SDS011;54819;48.030;14.710;2023-04-24T00:18:17;5.80;;;2.80;;
68025;SDS011;54819;48.030;14.710;2023-04-24T00:20:44;6.00;;;2.60;;
68025;SDS011;54819;48.030;14.710;2023-04-24T00:23:11;4.40;;;1.80;;
68025;SDS011;54819;48.030;14.710;2023-04-24T00:25:38;5.00;;;2.50;;
68025;SDS011;54819;48.030;14.710;2023-04-24T00:28:05;3.70;;;1.70;;
68025;SDS011;54819;48.030;14.710;2023-04-24T00:30:32;3.30;;;1.50;;
68025;SDS011;54819;48.030;14.710;2023-04-24T00:32:59;3.10;;;1.50;;
68025;SDS011;54819;48.030;14.710;2023-04-24T00:35:25;3.60;;;1.70;;
68025;SDS011;54819;48.030;14.710;2023-04-24T00:37:52;4.00;;;1.70;;
68025;SDS011;54819;48.030;14.710;2023-04-24T00:40:19;3.10;;;1.50;;
68025;SDS011;54819;48.030;14.710;2023-04-24T00:42:46;2.70;;;1.40;;
68025;SDS011;54819;48.030;14.710;2023-04-24T00:45:12;2.40;;;1.10;;
68025;SDS011;54819;48.030;14.710;2023-04-24T00:47:41;2.80;;;1.50;;
68025;SDS011;54819;48.030;14.710;2023-04-24T00:50:09;3.70;;;1.80;;
68025;SDS011;54819;48.030;14.710;2023-04-24T00:52:36;3.10;;;1.60;;
68025;SDS011;54819;48.030;14.710;2023-04-24T00:55:03;3.40;;;1.70;;
68025;SDS011;54819;48.030;14.710;2023-04-24T00:57:31;3.30;;;1.60;;
68025;SDS011;54819;48.030;14.710;2023-04-24T00:59:59;2.80;;;1.60;;
68025;SDS011;54819;48.030;14.710;2023-04-24T01:02:26;3.50;;;1.30;;
68025;SDS011;54819;48.030;14.710;2023-04-24T01:04:53;2.90;;;1.10;;
68025;SDS011;54819;48.030;14.710;2023-04-24T01:07:20;3.40;;;1.30;;
68025;SDS011;54819;48.030;14.710;2023-04-24T01:09:50;2.50;;;1.40;;
68025;SDS011;54819;48.030;14.710;2023-04-24T01:12:19;2.70;;;1.20;;
68025;SDS011;54819;48.030;14.710;2023-04-24T01:14:46;3.00;;;1.80;;
68025;SDS011;54819;48.030;14.710;2023-04-24T01:17:14;3.10;;;1.40;;
68025;SDS011;54819;48.030;14.710;2023-04-24T01:19:42;3.30;;;1.10;;
68025;SDS011;54819;48.030;14.710;2023-04-24T01:22:13;1.90;;;1.10;;
68025;SDS011;54819;48.030;14.710;2023-04-24T01:24:41;1.70;;;0.90;;
68025;SDS011;54819;48.030;14.710;2023-04-24T01:27:11;1.80;;;1.00;;
68025;SDS011;54819;48.030;14.710;2023-04-24T01:29:39;2.60;;;1.00;;
68025;SDS011;54819;48.030;14.710;2023-04-24T01:32:09;1.90;;;1.00;;
68025;SDS011;54819;48.030;14.710;2023-04-24T01:34:37;2.10;;;1.30;;
68025;SDS011;54819;48.030;14.710;2023-04-24T01:37:04;2.10;;;0.90;;
68025;SDS011;54819;48.030;14.710;2023-04-24T01:39:31;2.90;;;0.90;;
68025;SDS011;54819;48.030;14.710;2023-04-24T01:42:00;2.00;;;0.90;;
68025;SDS011;54819;48.030;14.710;2023-04-24T01:44:28;1.60;;;0.80;;
68025;SDS011;54819;48.030;14.710;2023-04-24T01:46:55;2.10;;;0.80;;
68025;SDS011;54819;48.030;14.710;2023-04-24T01:49:23;2.30;;;1.10;;
68025;SDS011;54819;48.030;14.710;2023-04-24T01:51:49;2.10;;;1.10;;
68025;SDS011;54819;48.030;14.710;2023-04-24T01:54:16;2.00;;;0.90;;
68025;SDS011;54819;48.030;14.710;2023-04-24T01:56:43;2.00;;;1.00;;
68025;SDS011;54819;48.030;14.710;2023-04-24T01:59:11;2.40;;;0.60;;
68025;SDS011;54819;48.030;14.710;2023-04-24T02:04:07;2.10;;;0.80;;
68025;SDS011;54819;48.030;14.710;2023-04-24T02:06:35;3.00;;;0.90;;
68025;SDS011;54819;48.030;14.710;2023-04-24T02:09:02;2.80;;;1.30;;
68025;SDS011;54819;48.030;14.710;2023-04-24T02:11:29;2.20;;;1.30;;
68025;SDS011;54819;48.030;14.710;2023-04-24T02:13:56;1.40;;;0.70;;
68025;SDS011;54819;48.030;14.710;2023-04-24T02:16:23;1.20;;;0.70;;
68025;SDS011;54819;48.030;14.710;2023-04-24T02:18:50;1.40;;;0.90;;
68025;SDS011;54819;48.030;14.710;2023-04-24T02:21:17;1.70;;;0.80;;
68025;SDS011;54819;48.030;14.710;2023-04-24T02:23:43;1.10;;;0.60;;
68025;SDS011;54819;48.030;14.710;2023-04-24T02:26:12;2.60;;;0.80;;
68025;SDS011;54819;48.030;14.710;2023-04-24T02:28:38;1.80;;;1.00;;
68025;SDS011;54819;48.030;14.710;2023-04-24T02:31:05;3.00;;;0.80;;
68025;SDS011;54819;48.030;14.710;2023-04-24T02:33:33;1.40;;;0.80;;
68025;SDS011;54819;48.030;14.710;2023-04-24T02:35:59;3.20;;;0.90;;
68025;SDS011;54819;48.030;14.710;2023-04-24T02:38:27;1.80;;;0.80;;
68025;SDS011;54819;48.030;14.710;2023-04-24T02:40:53;1.30;;;0.90;;
68025;SDS011;54819;48.030;14.710;2023-04-24T02:43:20;2.00;;;0.80;;
68025;SDS011;54819;48.030;14.710;2023-04-24T02:45:48;1.00;;;0.60;;
68025;SDS011;54819;48.030;14.710;2023-04-24T02:48:15;2.30;;;0.80;;
68025;SDS011;54819;48.030;14.710;2023-04-24T02:50:42;1.40;;;0.80;;
68025;SDS011;54819;48.030;14.710;2023-04-24T02:53:08;1.90;;;1.00;;
68025;SDS011;54819;48.030;14.710;2023-04-24T02:55:35;2.40;;;1.00;;
68025;SDS011;54819;48.030;14.710;2023-04-24T02:58:02;3.10;;;0.70;;
68025;SDS011;54819;48.030;14.710;2023-04-24T03:00:29;1.70;;;0.60;;
68025;SDS011;54819;48.030;14.710;2023-04-24T03:02:56;1.60;;;0.80;;
68025;SDS011;54819;48.030;14.710;2023-04-24T03:05:23;1.50;;;0.70;;
68025;SDS011;54819;48.030;14.710;2023-04-24T03:07:50;1.70;;;0.60;;
68025;SDS011;54819;48.030;14.710;2023-04-24T03:10:20;2.30;;;1.10;;
68025;SDS011;54819;48.030;14.710;2023-04-24T03:12:49;3.30;;;1.10;;
68025;SDS011;54819;48.030;14.710;2023-04-24T03:15:17;1.50;;;0.90;;
68025;SDS011;54819;48.030;14.710;2023-04-24T03:17:44;2.50;;;1.00;;
68025;SDS011;54819;48.030;14.710;2023-04-24T03:20:11;1.10;;;0.70;;
68025;SDS011;54819;48.030;14.710;2023-04-24T03:22:38;1.60;;;0.90;;
68025;SDS011;54819;48.030;14.710;2023-04-24T03:25:06;2.10;;;0.70;;
68025;SDS011;54819;48.030;14.710;2023-04-24T03:27:35;1.30;;;0.70;;
68025;SDS011;54819;48.030;14.710;2023-04-24T03:30:14;1.70;;;0.80;;
68025;SDS011;54819;48.030;14.710;2023-04-24T03:32:45;1.60;;;0.80;;
68025;SDS011;54819;48.030;14.710;2023-04-24T03:35:14;1.80;;;1.00;;
68025;SDS011;54819;48.030;14.710;2023-04-24T03:37:41;2.10;;;0.80;;
68025;SDS011;54819;48.030;14.710;2023-04-24T03:40:26;1.30;;;0.60;;
68025;SDS011;54819;48.030;14.710;2023-04-24T03:42:55;1.90;;;0.90;;
68025;SDS011;54819;48.030;14.710;2023-04-24T03:45:22;2.00;;;0.90;;
68025;SDS011;54819;48.030;14.710;2023-04-24T03:47:49;1.80;;;0.80;;
68025;SDS011;54819;48.030;14.710;2023-04-24T03:50:16;2.20;;;1.00;;
68025;SDS011;54819;48.030;14.710;2023-04-24T03:52:43;1.60;;;0.80;;
68025;SDS011;54819;48.030;14.710;2023-04-24T03:55:11;2.40;;;1.20;;
68025;SDS011;54819;48.030;14.710;2023-04-24T03:57:43;2.30;;;1.10;;
68025;SDS011;54819;48.030;14.710;2023-04-24T04:00:16;4.20;;;1.20;;
68025;SDS011;54819;48.030;14.710;2023-04-24T04:02:45;2.60;;;1.40;;
68025;SDS011;54819;48.030;14.710;2023-04-24T04:05:12;3.50;;;1.20;;
68025;SDS011;54819;48.030;14.710;2023-04-24T04:07:40;2.70;;;1.50;;
68025;SDS011;54819;48.030;14.710;2023-04-24T04:10:07;2.80;;;1.40;;
68025;SDS011;54819;48.030;14.710;2023-04-24T04:12:35;2.80;;;1.50;;
68025;SDS011;54819;48.030;14.710;2023-04-24T04:15:02;2.90;;;1.30;;
68025;SDS011;54819;48.030;14.710;2023-04-24T04:17:31;4.70;;;1.50;;
68025;SDS011;54819;48.030;14.710;2023-04-24T04:19:59;2.40;;;1.20;;
68025;SDS011;54819;48.030;14.710;2023-04-24T04:22:27;4.00;;;1.50;;
68025;SDS011;54819;48.030;14.710;2023-04-24T04:24:53;2.60;;;1.40;;
68025;SDS011;54819;48.030;14.710;2023-04-24T04:27:21;3.30;;;1.40;;
68025;SDS011;54819;48.030;14.710;2023-04-24T04:29:54;3.50;;;1.50;;
68025;SDS011;54819;48.030;14.710;2023-04-24T04:32:23;2.90;;;1.30;;
68025;SDS011;54819;48.030;14.710;2023-04-24T04:34:50;1.90;;;1.20;;
68025;SDS011;54819;48.030;14.710;2023-04-24T04:37:20;3.40;;;1.10;;
68025;SDS011;54819;48.030;14.710;2023-04-24T04:40:01;3.60;;;1.10;;
68025;SDS011;54819;48.030;14.710;2023-04-24T04:42:37;2.70;;;1.30;;
68025;SDS011;54819;48.030;14.710;2023-04-24T04:45:08;3.60;;;1.40;;
68025;SDS011;54819;48.030;14.710;2023-04-24T04:47:43;3.60;;;1.30;;
68025;SDS011;54819;48.030;14.710;2023-04-24T04:50:11;1.70;;;1.10;;
68025;SDS011;54819;48.030;14.710;2023-04-24T04:52:38;3.70;;;1.30;;
68025;SDS011;54819;48.030;14.710;2023-04-24T04:55:18;1.40;;;0.80;;
68025;SDS011;54819;48.030;14.710;2023-04-24T04:58:03;1.90;;;0.90;;
68025;SDS011;54819;48.030;14.710;2023-04-24T05:00:30;2.30;;;1.00;;
68025;SDS011;54819;48.030;14.710;2023-04-24T05:03:05;5.80;;;1.30;;
68025;SDS011;54819;48.030;14.710;2023-04-24T05:05:46;1.60;;;0.80;;
68025;SDS011;54819;48.030;14.710;2023-04-24T05:08:13;2.00;;;0.80;;
68025;SDS011;54819;48.030;14.710;2023-04-24T05:10:43;1.70;;;0.80;;
68025;SDS011;54819;48.030;14.710;2023-04-24T05:13:10;2.70;;;0.60;;
68025;SDS011;54819;48.030;14.710;2023-04-24T05:15:39;1.90;;;0.70;;
68025;SDS011;54819;48.030;14.710;2023-04-24T05:18:06;1.60;;;0.60;;
68025;SDS011;54819;48.030;14.710;2023-04-24T05:20:33;1.00;;;0.50;;
68025;SDS011;54819;48.030;14.710;2023-04-24T05:23:00;1.20;;;0.60;;
68025;SDS011;54819;48.030;14.710;2023-04-24T05:25:27;2.20;;;0.90;;
68025;SDS011;54819;48.030;14.710;2023-04-24T05:27:59;1.10;;;0.60;;
68025;SDS011;54819;48.030;14.710;2023-04-24T05:30:26;2.00;;;0.70;;
68025;SDS011;54819;48.030;14.710;2023-04-24T05:32:53;1.00;;;0.70;;
68025;SDS011;54819;48.030;14.710;2023-04-24T05:35:20;1.80;;;0.50;;
68025;SDS011;54819;48.030;14.710;2023-04-24T05:37:46;1.70;;;0.60;;
68025;SDS011;54819;48.030;14.710;2023-04-24T05:40:14;1.40;;;0.60;;
68025;SDS011;54819;48.030;14.710;2023-04-24T05:42:41;1.10;;;0.60;;
68025;SDS011;54819;48.030;14.710;2023-04-24T05:45:08;3.20;;;0.60;;
68025;SDS011;54819;48.030;14.710;2023-04-24T05:47:38;1.30;;;0.50;;
68025;SDS011;54819;48.030;14.710;2023-04-24T05:50:05;1.60;;;0.50;;
68025;SDS011;54819;48.030;14.710;2023-04-24T05:52:32;0.70;;;0.50;;
68025;SDS011;54819;48.030;14.710;2023-04-24T05:55:01;1.20;;;0.50;;
68025;SDS011;54819;48.030;14.710;2023-04-24T05:57:31;2.30;;;0.70;;
68025;SDS011;54819;48.030;14.710;2023-04-24T06:00:01;0.70;;;0.30;;
68025;SDS011;54819;48.030;14.710;2023-04-24T06:02:28;1.50;;;0.40;;
68025;SDS011;54819;48.030;14.710;2023-04-24T06:04:59;0.70;;;0.50;;
68025;SDS011;54819;48.030;14.710;2023-04-24T06:07:26;0.70;;;0.50;;
68025;SDS011;54819;48.030;14.710;2023-04-24T06:09:53;1.00;;;0.50;;
68025;SDS011;54819;48.030;14.710;2023-04-24T06:12:20;0.70;;;0.50;;
68025;SDS011;54819;48.030;14.710;2023-04-24T06:14:59;0.50;;;0.40;;
68025;SDS011;54819;48.030;14.710;2023-04-24T06:17:45;1.40;;;0.40;;
68025;SDS011;54819;48.030;14.710;2023-04-24T06:20:14;0.80;;;0.30;;
68025;SDS011;54819;48.030;14.710;2023-04-24T06:22:40;0.60;;;0.40;;
68025;SDS011;54819;48.030;14.710;2023-04-24T06:27:35;0.50;;;0.40;;
68025;SDS011;54819;48.030;14.710;2023-04-24T06:30:02;1.30;;;0.50;;
68025;SDS011;54819;48.030;14.710;2023-04-24T06:32:29;0.50;;;0.40;;
68025;SDS011;54819;48.030;14.710;2023-04-24T06:34:58;0.50;;;0.40;;
68025;SDS011;54819;48.030;14.710;2023-04-24T06:37:25;0.40;;;0.30;;
68025;SDS011;54819;48.030;14.710;2023-04-24T06:39:52;0.80;;;0.50;;
68025;SDS011;54819;48.030;14.710;2023-04-24T06:42:19;2.40;;;0.50;;
68025;SDS011;54819;48.030;14.710;2023-04-24T06:44:48;1.30;;;0.50;;
68025;SDS011;54819;48.030;14.710;2023-04-24T06:47:15;0.90;;;0.50;;
68025;SDS011;54819;48.030;14.710;2023-04-24T06:49:42;1.50;;;0.40;;
68025;SDS011;54819;48.030;14.710;2023-04-24T06:52:09;0.80;;;0.50;;
68025;SDS011;54819;48.030;14.710;2023-04-24T06:54:36;2.00;;;0.60;;
68025;SDS011;54819;48.030;14.710;2023-04-24T06:57:03;0.80;;;0.50;;
68025;SDS011;54819;48.030;14.710;2023-04-24T06:59:30;0.40;;;0.40;;
68025;SDS011;54819;48.030;14.710;2023-04-24T07:01:57;0.50;;;0.40;;
68025;SDS011;54819;48.030;14.710;2023-04-24T07:04:24;1.00;;;0.40;;
68025;SDS011;54819;48.030;14.710;2023-04-24T07:06:52;0.70;;;0.50;;
68025;SDS011;54819;48.030;14.710;2023-04-24T07:09:22;1.00;;;0.40;;
68025;SDS011;54819;48.030;14.710;2023-04-24T07:11:51;1.20;;;0.50;;
68025;SDS011;54819;48.030;14.710;2023-04-24T07:16:45;0.80;;;0.50;;
68025;SDS011;54819;48.030;14.710;2023-04-24T07:19:13;0.40;;;0.40;;
68025;SDS011;54819;48.030;14.710;2023-04-24T07:24:07;0.50;;;0.40;;
68025;SDS011;54819;48.030;14.710;2023-04-24T07:26:38;0.80;;;0.30;;
68025;SDS011;54819;48.030;14.710;2023-04-24T07:29:06;1.40;;;0.40;;
68025;SDS011;54819;48.030;14.710;2023-04-24T07:31:34;1.20;;;0.60;;
68025;SDS011;54819;48.030;14.710;2023-04-24T07:34:01;0.80;;;0.40;;
68025;SDS011;54819;48.030;14.710;2023-04-24T07:36:27;1.30;;;0.50;;
68025;SDS011;54819;48.030;14.710;2023-04-24T07:38:55;0.90;;;0.50;;
68025;SDS011;54819;48.030;14.710;2023-04-24T07:41:23;0.80;;;0.50;;
68025;SDS011;54819;48.030;14.710;2023-04-24T07:43:51;1.00;;;0.30;;
68025;SDS011;54819;48.030;14.710;2023-04-24T07:46:20;0.50;;;0.40;;
68025;SDS011;54819;48.030;14.710;2023-04-24T07:48:47;1.80;;;0.50;;
68025;SDS011;54819;48.030;14.710;2023-04-24T07:51:27;2.10;;;0.60;;
68025;SDS011;54819;48.030;14.710;2023-04-24T07:53:54;2.30;;;0.50;;
68025;SDS011;54819;48.030;14.710;2023-04-24T07:56:24;1.60;;;0.70;;
68025;SDS011;54819;48.030;14.710;2023-04-24T07:58:53;0.60;;;0.50;;
68025;SDS011;54819;48.030;14.710;2023-04-24T08:01:20;0.90;;;0.50;;
68025;SDS011;54819;48.030;14.710;2023-04-24T08:03:46;0.80;;;0.40;;
68025;SDS011;54819;48.030;14.710;2023-04-24T08:06:14;0.90;;;0.40;;
68025;SDS011;54819;48.030;14.710;2023-04-24T08:08:41;0.40;;;0.40;;
68025;SDS011;54819;48.030;14.710;2023-04-24T08:11:07;0.50;;;0.40;;
68025;SDS011;54819;48.030;14.710;2023-04-24T08:13:34;2.00;;;0.50;;
68025;SDS011;54819;48.030;14.710;2023-04-24T08:16:01;1.00;;;0.40;;
68025;SDS011;54819;48.030;14.710;2023-04-24T08:18:28;1.00;;;0.60;;
68025;SDS011;54819;48.030;14.710;2023-04-24T08:20:55;0.60;;;0.40;;
68025;SDS011;54819;48.030;14.710;2023-04-24T08:23:22;0.90;;;0.40;;
68025;SDS011;54819;48.030;14.710;2023-04-24T08:25:49;0.40;;;0.30;;
68025;SDS011;54819;48.030;14.710;2023-04-24T08:28:15;0.70;;;0.40;;
68025;SDS011;54819;48.030;14.710;2023-04-24T08:30:46;1.10;;;0.40;;
68025;SDS011;54819;48.030;14.710;2023-04-24T08:33:14;0.90;;;0.60;;
68025;SDS011;54819;48.030;14.710;2023-04-24T08:35:41;0.60;;;0.40;;
68025;SDS011;54819;48.030;14.710;2023-04-24T08:38:08;1.60;;;0.50;;
68025;SDS011;54819;48.030;14.710;2023-04-24T08:40:36;2.80;;;0.50;;
68025;SDS011;54819;48.030;14.710;2023-04-24T08:43:03;1.70;;;0.60;;
68025;SDS011;54819;48.030;14.710;2023-04-24T08:45:30;2.20;;;0.40;;
68025;SDS011;54819;48.030;14.710;2023-04-24T08:47:59;0.70;;;0.40;;
68025;SDS011;54819;48.030;14.710;2023-04-24T08:50:26;0.70;;;0.40;;
68025;SDS011;54819;48.030;14.710;2023-04-24T08:52:55;1.00;;;0.40;;
68025;SDS011;54819;48.030;14.710;2023-04-24T08:55:24;0.60;;;0.40;;
68025;SDS011;54819;48.030;14.710;2023-04-24T08:57:52;0.70;;;0.40;;
68025;SDS011;54819;48.030;14.710;2023-04-24T09:00:21;0.90;;;0.50;;
68025;SDS011;54819;48.030;14.710;2023-04-24T09:02:52;1.00;;;0.50;;
68025;SDS011;54819;48.030;14.710;2023-04-24T09:05:22;1.00;;;0.40;;
68025;SDS011;54819;48.030;14.710;2023-04-24T09:07:55;1.60;;;0.50;;
68025;SDS011;54819;48.030;14.710;2023-04-24T09:10:24;1.40;;;0.50;;
68025;SDS011;54819;48.030;14.710;2023-04-24T09:12:53;1.50;;;0.50;;
68025;SDS011;54819;48.030;14.710;2023-04-24T09:15:23;3.30;;;0.60;;
68025;SDS011;54819;48.030;14.710;2023-04-24T09:17:50;1.20;;;0.50;;
68025;SDS011;54819;48.030;14.710;2023-04-24T09:20:17;2.50;;;0.70;;
68025;SDS011;54819;48.030;14.710;2023-04-24T09:22:45;1.50;;;0.60;;
68025;SDS011;54819;48.030;14.710;2023-04-24T09:25:11;0.70;;;0.40;;
68025;SDS011;54819;48.030;14.710;2023-04-24T09:27:44;1.80;;;0.70;;
68025;SDS011;54819;48.030;14.710;2023-04-24T09:30:12;0.80;;;0.30;;
68025;SDS011;54819;48.030;14.710;2023-04-24T09:32:40;0.70;;;0.40;;
68025;SDS011;54819;48.030;14.710;2023-04-24T09:37:42;1.10;;;0.50;;
68025;SDS011;54819;48.030;14.710;2023-04-24T09:40:12;0.70;;;0.50;;
68025;SDS011;54819;48.030;14.710;2023-04-24T09:42:56;0.60;;;0.40;;
68025;SDS011;54819;48.030;14.710;2023-04-24T09:45:42;0.60;;;0.40;;
68025;SDS011;54819;48.030;14.710;2023-04-24T09:48:09;0.40;;;0.40;;
68025;SDS011;54819;48.030;14.710;2023-04-24T09:50:37;2.00;;;0.40;;
68025;SDS011;54819;48.030;14.710;2023-04-24T09:53:05;0.30;;;0.30;;
68025;SDS011;54819;48.030;14.710;2023-04-24T09:55:45;0.90;;;0.40;;
68025;SDS011;54819;48.030;14.710;2023-04-24T09:58:16;0.90;;;0.40;;
68025;SDS011;54819;48.030;14.710;2023-04-24T10:00:45;1.50;;;0.50;;
68025;SDS011;54819;48.030;14.710;2023-04-24T10:03:12;1.30;;;0.40;;
68025;SDS011;54819;48.030;14.710;2023-04-24T10:05:39;2.20;;;0.60;;
68025;SDS011;54819;48.030;14.710;2023-04-24T10:08:08;0.60;;;0.40;;
68025;SDS011;54819;48.030;14.710;2023-04-24T10:10:40;1.30;;;0.50;;
68025;SDS011;54819;48.030;14.710;2023-04-24T10:13:09;1.10;;;0.40;;
68025;SDS011;54819;48.030;14.710;2023-04-24T10:15:38;2.80;;;1.10;;
68025;SDS011;54819;48.030;14.710;2023-04-24T10:18:08;2.60;;;1.10;;
68025;SDS011;54819;48.030;14.710;2023-04-24T10:20:38;2.40;;;0.70;;
68025;SDS011;54819;48.030;14.710;2023-04-24T10:23:06;1.10;;;0.40;;
68025;SDS011;54819;48.030;14.710;2023-04-24T10:25:35;1.70;;;0.70;;
68025;SDS011;54819;48.030;14.710;2023-04-24T10:28:03;0.60;;;0.40;;
68025;SDS011;54819;48.030;14.710;2023-04-24T10:30:34;3.30;;;0.80;;
68025;SDS011;54819;48.030;14.710;2023-04-24T10:33:06;4.30;;;1.20;;
68025;SDS011;54819;48.030;14.710;2023-04-24T10:35:41;3.90;;;1.10;;
68025;SDS011;54819;48.030;14.710;2023-04-24T10:38:13;4.70;;;1.30;;
68025;SDS011;54819;48.030;14.710;2023-04-24T10:40:42;2.60;;;0.60;;
68025;SDS011;54819;48.030;14.710;2023-04-24T10:43:09;0.60;;;0.40;;
68025;SDS011;54819;48.030;14.710;2023-04-24T10:45:38;0.30;;;0.20;;
68025;SDS011;54819;48.030;14.710;2023-04-24T10:48:07;0.50;;;0.40;;
68025;SDS011;54819;48.030;14.710;2023-04-24T10:50:47;0.30;;;0.30;;
68025;SDS011;54819;48.030;14.710;2023-04-24T10:53:27;1.30;;;0.30;;
68025;SDS011;54819;48.030;14.710;2023-04-24T10:56:06;1.30;;;0.50;;
68025;SDS011;54819;48.030;14.710;2023-04-24T10:58:50;0.50;;;0.30;;
68025;SDS011;54819;48.030;14.710;2023-04-24T11:01:31;1.60;;;0.50;;
68025;SDS011;54819;48.030;14.710;2023-04-24T11:04:01;1.20;;;0.40;;
68025;SDS011;54819;48.030;14.710;2023-04-24T11:06:35;0.70;;;0.40;;
68025;SDS011;54819;48.030;14.710;2023-04-24T11:09:10;0.30;;;0.30;;
68025;SDS011;54819;48.030;14.710;2023-04-24T11:11:46;2.10;;;0.40;;
68025;SDS011;54819;48.030;14.710;2023-04-24T11:14:16;0.90;;;0.30;;
68025;SDS011;54819;48.030;14.710;2023-04-24T11:16:54;2.40;;;0.60;;
68025;SDS011;54819;48.030;14.710;2023-04-24T11:19:24;0.40;;;0.30;;
68025;SDS011;54819;48.030;14.710;2023-04-24T11:21:59;1.40;;;0.40;;
68025;SDS011;54819;48.030;14.710;2023-04-24T11:26:59;1.20;;;0.50;;
68025;SDS011;54819;48.030;14.710;2023-04-24T11:29:48;1.30;;;0.50;;
68025;SDS011;54819;48.030;14.710;2023-04-24T11:35:16;2.50;;;0.70;;
68025;SDS011;54819;48.030;14.710;2023-04-24T11:37:49;0.80;;;0.60;;
68025;SDS011;54819;48.030;14.710;2023-04-24T11:40:22;1.40;;;0.50;;
68025;SDS011;54819;48.030;14.710;2023-04-24T11:42:51;1.20;;;0.60;;
68025;SDS011;54819;48.030;14.710;2023-04-24T11:45:23;0.90;;;0.50;;
68025;SDS011;54819;48.030;14.710;2023-04-24T11:47:52;1.40;;;0.60;;
68025;SDS011;54819;48.030;14.710;2023-04-24T11:50:22;3.00;;;0.60;;
68025;SDS011;54819;48.030;14.710;2023-04-24T11:52:52;1.10;;;0.50;;
68025;SDS011;54819;48.030;14.710;2023-04-24T11:57:49;2.80;;;0.60;;
68025;SDS011;54819;48.030;14.710;2023-04-24T12:00:19;1.90;;;0.40;;
68025;SDS011;54819;48.030;14.710;2023-04-24T12:02:48;1.30;;;0.50;;
68025;SDS011;54819;48.030;14.710;2023-04-24T12:05:24;0.70;;;0.30;;
68025;SDS011;54819;48.030;14.710;2023-04-24T12:07:53;0.50;;;0.40;;
68025;SDS011;54819;48.030;14.710;2023-04-24T12:10:23;0.90;;;0.40;;
68025;SDS011;54819;48.030;14.710;2023-04-24T12:12:52;1.80;;;0.50;;
68025;SDS011;54819;48.030;14.710;2023-04-24T12:15:20;0.90;;;0.50;;
68025;SDS011;54819;48.030;14.710;2023-04-24T12:20:16;1.90;;;0.50;;
68025;SDS011;54819;48.030;14.710;2023-04-24T12:22:46;1.10;;;0.60;;
68025;SDS011;54819;48.030;14.710;2023-04-24T12:25:23;0.80;;;0.50;;
68025;SDS011;54819;48.030;14.710;2023-04-24T12:28:08;2.80;;;0.60;;
68025;SDS011;54819;48.030;14.710;2023-04-24T12:30:43;0.90;;;0.60;;
68025;SDS011;54819;48.030;14.710;2023-04-24T12:33:11;1.80;;;0.60;;
68025;SDS011;54819;48.030;14.710;2023-04-24T12:35:40;1.60;;;0.50;;
68025;SDS011;54819;48.030;14.710;2023-04-24T12:38:13;1.40;;;0.50;;
68025;SDS011;54819;48.030;14.710;2023-04-24T12:40:42;1.00;;;0.50;;
68025;SDS011;54819;48.030;14.710;2023-04-24T12:43:17;0.80;;;0.50;;
68025;SDS011;54819;48.030;14.710;2023-04-24T12:45:48;1.10;;;0.50;;
68025;SDS011;54819;48.030;14.710;2023-04-24T12:48:15;2.50;;;0.60;;
68025;SDS011;54819;48.030;14.710;2023-04-24T12:50:43;1.20;;;0.50;;
68025;SDS011;54819;48.030;14.710;2023-04-24T12:53:13;1.10;;;0.60;;
68025;SDS011;54819;48.030;14.710;2023-04-24T12:55:41;1.30;;;0.70;;
68025;SDS011;54819;48.030;14.710;2023-04-24T12:58:08;2.60;;;0.80;;
68025;SDS011;54819;48.030;14.710;2023-04-24T13:00:35;5.50;;;0.90;;
68025;SDS011;54819;48.030;14.710;2023-04-24T13:05:30;1.80;;;0.70;;
68025;SDS011;54819;48.030;14.710;2023-04-24T13:07:57;1.10;;;0.60;;
68025;SDS011;54819;48.030;14.710;2023-04-24T13:10:24;0.90;;;0.40;;
68025;SDS011;54819;48.030;14.710;2023-04-24T13:12:51;2.70;;;0.50;;
68025;SDS011;54819;48.030;14.710;2023-04-24T13:15:17;3.00;;;0.70;;
68025;SDS011;54819;48.030;14.710;2023-04-24T13:17:44;1.10;;;0.70;;
68025;SDS011;54819;48.030;14.710;2023-04-24T13:20:11;2.90;;;0.90;;
68025;SDS011;54819;48.030;14.710;2023-04-24T13:22:38;2.20;;;0.80;;
68025;SDS011;54819;48.030;14.710;2023-04-24T13:25:05;3.10;;;0.70;;
68025;SDS011;54819;48.030;14.710;2023-04-24T13:27:37;3.00;;;0.80;;
68025;SDS011;54819;48.030;14.710;2023-04-24T13:30:05;3.20;;;0.90;;
68025;SDS011;54819;48.030;14.710;2023-04-24T13:32:33;1.90;;;0.80;;
68025;SDS011;54819;48.030;14.710;2023-04-24T13:35:02;2.30;;;0.60;;
68025;SDS011;54819;48.030;14.710;2023-04-24T13:37:28;1.00;;;0.60;;
68025;SDS011;54819;48.030;14.710;2023-04-24T13:39:55;1.70;;;0.90;;
68025;SDS011;54819;48.030;14.710;2023-04-24T13:42:22;2.50;;;0.90;;
68025;SDS011;54819;48.030;14.710;2023-04-24T13:44:49;2.10;;;0.70;;
68025;SDS011;54819;48.030;14.710;2023-04-24T13:47:17;2.70;;;0.70;;
68025;SDS011;54819;48.030;14.710;2023-04-24T13:49:44;3.40;;;1.00;;
68025;SDS011;54819;48.030;14.710;2023-04-24T13:52:11;2.70;;;0.70;;
68025;SDS011;54819;48.030;14.710;2023-04-24T13:54:37;1.60;;;0.60;;
68025;SDS011;54819;48.030;14.710;2023-04-24T13:57:04;1.40;;;0.50;;
68025;SDS011;54819;48.030;14.710;2023-04-24T13:59:31;2.30;;;0.80;;
68025;SDS011;54819;48.030;14.710;2023-04-24T14:01:57;4.60;;;0.90;;
68025;SDS011;54819;48.030;14.710;2023-04-24T14:04:24;1.00;;;0.70;;
68025;SDS011;54819;48.030;14.710;2023-04-24T14:06:52;1.80;;;0.90;;
68025;SDS011;54819;48.030;14.710;2023-04-24T14:09:18;2.20;;;0.90;;
68025;SDS011;54819;48.030;14.710;2023-04-24T14:11:45;1.40;;;0.70;;
68025;SDS011;54819;48.030;14.710;2023-04-24T14:14:12;1.80;;;0.80;;
68025;SDS011;54819;48.030;14.710;2023-04-24T14:16:39;1.40;;;0.70;;
68025;SDS011;54819;48.030;14.710;2023-04-24T14:19:06;1.70;;;0.80;;
68025;SDS011;54819;48.030;14.710;2023-04-24T14:21:33;2.90;;;0.80;;
68025;SDS011;54819;48.030;14.710;2023-04-24T14:23:59;2.90;;;0.90;;
68025;SDS011;54819;48.030;14.710;2023-04-24T14:26:26;1.90;;;0.80;;
68025;SDS011;54819;48.030;14.710;2023-04-24T14:28:53;1.90;;;0.90;;
68025;SDS011;54819;48.030;14.710;2023-04-24T14:31:36;2.30;;;1.30;;
68025;SDS011;54819;48.030;14.710;2023-04-24T14:34:03;5.50;;;2.10;;
68025;SDS011;54819;48.030;14.710;2023-04-24T14:36:30;4.70;;;2.00;;
68025;SDS011;54819;48.030;14.710;2023-04-24T14:38:57;6.90;;;2.40;;
68025;SDS011;54819;48.030;14.710;2023-04-24T14:41:24;4.60;;;1.90;;
68025;SDS011;54819;48.030;14.710;2023-04-24T14:43:51;2.50;;;1.30;;
68025;SDS011;54819;48.030;14.710;2023-04-24T14:46:18;2.40;;;1.10;;
68025;SDS011;54819;48.030;14.710;2023-04-24T14:48:45;4.20;;;1.40;;
68025;SDS011;54819;48.030;14.710;2023-04-24T14:51:11;3.30;;;1.30;;
68025;SDS011;54819;48.030;14.710;2023-04-24T14:53:38;4.70;;;2.00;;
68025;SDS011;54819;48.030;14.710;2023-04-24T14:56:05;7.50;;;2.90;;
68025;SDS011;54819;48.030;14.710;2023-04-24T14:58:32;10.70;;;3.90;;
68025;SDS011;54819;48.030;14.710;2023-04-24T15:00:59;10.30;;;4.10;;
68025;SDS011;54819;48.030;14.710;2023-04-24T15:03:26;8.30;;;3.50;;
68025;SDS011;54819;48.030;14.710;2023-04-24T15:05:53;7.30;;;3.20;;
68025;SDS011;54819;48.030;14.710;2023-04-24T15:08:20;4.90;;;2.30;;